Time;durP1;ratioP1;P1;durP2;ratioP2;P2;SDS_P1;SDS_P2;PMS_P1;PMS_P2;Temp;Humidity;BMP_temperature;BMP_pressure;BME280_temperature;BME280_humidity;BME280_pressure;Samples;Min_cycle;Max_cycle;Signal;HPM_P1;HPM_P2
2023/05/09 00:01:28;;;;;;;;;;;16.40;95.60;;;;;;5045309;28;20310;-68
2023/05/09 00:03:54;;;;;;;;;;;16.40;95.60;;;;;;5045081;28;19966;-68
2023/05/09 00:06:20;;;;;;;;;;;16.40;95.60;;;;;;5045236;28;19912;-68
2023/05/09 00:08:46;;;;;;;;;;;16.40;95.60;;;;;;5027755;28;19919;-68
2023/05/09 00:11:11;;;;;;;;;;;16.40;95.70;;;;;;5045331;28;19919;-68
2023/05/09 00:13:37;;;;;;;;;;;16.30;95.80;;;;;;5044834;28;19981;-68
2023/05/09 00:16:04;;;;;;;;;;;16.30;95.90;;;;;;5036706;28;19917;-68
2023/05/09 00:18:30;;;;;;;;;;;16.30;95.80;;;;;;5044908;28;19913;-68
2023/05/09 00:20:56;;;;;;;;;;;16.30;95.80;;;;;;5044879;28;19984;-68
2023/05/09 00:23:22;;;;;;;;;;;16.30;96.00;;;;;;5045108;28;19919;-68
2023/05/09 00:25:47;;;;;;;;;;;16.20;96.20;;;;;;5045147;28;20020;-68
2023/05/09 00:28:13;;;;;;;;;;;16.20;96.10;;;;;;5044962;28;19976;-68
2023/05/09 00:30:38;;;;;;;;;;;16.20;96.30;;;;;;5044344;28;19908;-68
2023/05/09 00:33:05;;;;;;;;;;;16.20;96.30;;;;;;5043665;28;19916;-68
2023/05/09 00:35:31;;;;;;;;;;;16.20;96.40;;;;;;5044396;28;19917;-68
2023/05/09 00:37:56;;;;;;;;;;;16.10;96.30;;;;;;5045036;28;19908;-68
2023/05/09 00:40:22;;;;;;;;;;;16.10;96.40;;;;;;5046611;28;20450;-68
2023/05/09 00:42:47;;;;;;;;;;;16.10;96.40;;;;;;5048002;28;19913;-68
2023/05/09 00:45:13;;;;;;;;;;;16.10;96.50;;;;;;5048078;28;19916;-68
2023/05/09 00:47:39;;;;;;;;;;;16.10;96.50;;;;;;5048576;28;20238;-68
2023/05/09 00:50:05;;;;;;;;;;;16.00;96.30;;;;;;5048432;28;19948;-68
2023/05/09 00:52:32;;;;;;;;;;;16.00;96.50;;;;;;5048250;28;20493;-68
2023/05/09 00:54:58;;;;;;;;;;;16.00;96.70;;;;;;5048163;28;20404;-68
2023/05/09 00:57:24;;;;;;;;;;;16.00;96.50;;;;;;5048347;28;19908;-68
2023/05/09 00:59:50;;;;;;;;;;;15.90;96.70;;;;;;5048101;28;19920;-68
2023/05/09 01:02:18;;;;;;;;;;;15.90;97.00;;;;;;5030041;28;19913;-68
2023/05/09 01:04:44;;;;;;;;;;;15.90;96.70;;;;;;5030272;28;19909;-68
2023/05/09 01:07:16;;;;;;;;;;;15.90;96.70;;;;;;5047964;28;19913;-68
2023/05/09 01:09:51;;;;;;;;;;;15.90;96.80;;;;;;5048127;28;20698;-68
2023/05/09 01:12:25;;;;;;;;;;;15.90;96.80;;;;;;5047694;28;19913;-68
2023/05/09 01:14:51;;;;;;;;;;;15.80;96.60;;;;;;5047587;28;20335;-68
2023/05/09 01:17:22;;;;;;;;;;;15.80;96.70;;;;;;5047259;28;20007;-68
2023/05/09 01:20:14;;;;;;;;;;;15.80;96.80;;;;;;5048040;28;20338;-68
2023/05/09 01:22:44;;;;;;;;;;;15.80;96.80;;;;;;5055145;28;19917;-68
2023/05/09 01:25:17;;;;;;;;;;;15.70;97.00;;;;;;5047765;28;20544;-68
2023/05/09 01:28:06;;;;;;;;;;;15.70;96.90;;;;;;5030032;28;20290;-68
2023/05/09 01:30:33;;;;;;;;;;;15.70;96.90;;;;;;5047223;28;19936;-68
2023/05/09 01:33:00;;;;;;;;;;;15.70;96.90;;;;;;5047390;28;20007;-68
2023/05/09 01:35:28;;;;;;;;;;;15.70;96.80;;;;;;5047361;28;20065;-68
2023/05/09 01:37:53;;;;;;;;;;;15.70;96.80;;;;;;5047512;28;19916;-68
2023/05/09 01:40:20;;;;;;;;;;;15.70;96.90;;;;;;5047586;28;19909;-68
2023/05/09 01:42:55;;;;;;;;;;;15.60;96.80;;;;;;5047255;28;19920;-68
2023/05/09 01:45:21;;;;;;;;;;;15.60;96.80;;;;;;5029640;28;19912;-68
2023/05/09 01:47:47;;;;;;;;;;;15.60;96.70;;;;;;5029552;28;19916;-68
2023/05/09 01:50:14;;;;;;;;;;;15.60;96.80;;;;;;5047363;28;19936;-68
2023/05/09 01:52:41;;;;;;;;;;;15.60;96.90;;;;;;5046652;28;19917;-68
2023/05/09 01:55:07;;;;;;;;;;;15.60;96.70;;;;;;5047024;28;19921;-68
2023/05/09 01:57:34;;;;;;;;;;;15.60;96.80;;;;;;5047237;28;19913;-68
2023/05/09 02:00:00;;;;;;;;;;;15.60;96.80;;;;;;5047125;28;19912;-68
2023/05/09 02:02:26;;;;;;;;;;;15.60;96.80;;;;;;5047018;28;19916;-68
2023/05/09 02:04:54;;;;;;;;;;;15.50;96.80;;;;;;5047066;28;20468;-68
2023/05/09 02:07:20;;;;;;;;;;;15.50;96.80;;;;;;5047124;28;20024;-68
2023/05/09 02:09:48;;;;;;;;;;;15.50;96.80;;;;;;5047100;28;19912;-68
2023/05/09 02:12:13;;;;;;;;;;;15.50;96.80;;;;;;5028639;28;19913;-68
2023/05/09 02:14:39;;;;;;;;;;;15.50;96.80;;;;;;5043810;28;20036;-68
2023/05/09 02:17:05;;;;;;;;;;;15.50;96.90;;;;;;5041515;28;20310;-68
2023/05/09 02:19:34;;;;;;;;;;;15.50;96.90;;;;;;5046622;28;19909;-68
2023/05/09 02:22:00;;;;;;;;;;;15.50;96.80;;;;;;5046436;28;19920;-68
2023/05/09 02:24:26;;;;;;;;;;;15.40;96.80;;;;;;5046624;28;20404;-68
2023/05/09 02:26:52;;;;;;;;;;;15.40;96.80;;;;;;5046652;28;19909;-68
2023/05/09 02:29:18;;;;;;;;;;;15.40;96.70;;;;;;5046644;28;19913;-68
2023/05/09 02:31:45;;;;;;;;;;;15.40;96.70;;;;;;5046557;28;20428;-68
2023/05/09 02:34:12;;;;;;;;;;;15.40;96.70;;;;;;5028906;28;19916;-68
2023/05/09 02:36:37;;;;;;;;;;;15.40;96.70;;;;;;5046047;28;20644;-68
2023/05/09 02:39:03;;;;;;;;;;;15.40;96.70;;;;;;5046833;28;20012;-68
2023/05/09 02:41:28;;;;;;;;;;;15.40;96.80;;;;;;5046418;28;20368;-68
2023/05/09 02:43:54;;;;;;;;;;;15.30;96.90;;;;;;5046155;28;19963;-68
2023/05/09 02:46:20;;;;;;;;;;;15.40;96.90;;;;;;5046635;28;19919;-68
2023/05/09 02:48:45;;;;;;;;;;;15.40;96.90;;;;;;5046532;28;20043;-68
2023/05/09 02:51:11;;;;;;;;;;;15.30;96.90;;;;;;5045913;28;20543;-68
2023/05/09 02:53:36;;;;;;;;;;;15.30;96.80;;;;;;5045954;28;19916;-68
2023/05/09 02:56:02;;;;;;;;;;;15.30;96.80;;;;;;5046237;28;20285;-68
2023/05/09 02:58:28;;;;;;;;;;;15.30;96.70;;;;;;5046204;28;20277;-68
2023/05/09 03:00:53;;;;;;;;;;;15.30;96.70;;;;;;5027967;28;19916;-68
2023/05/09 03:03:20;;;;;;;;;;;15.30;96.70;;;;;;5044891;28;19908;-68
2023/05/09 03:05:46;;;;;;;;;;;15.30;96.80;;;;;;5045020;28;19916;-68
2023/05/09 03:08:11;;;;;;;;;;;15.30;96.70;;;;;;5045773;28;19916;-68
2023/05/09 03:10:37;;;;;;;;;;;15.30;96.80;;;;;;5045551;28;19916;-68
2023/05/09 03:13:03;;;;;;;;;;;15.30;96.80;;;;;;5045683;28;19920;-68
2023/05/09 03:15:28;;;;;;;;;;;15.30;96.80;;;;;;5045416;28;19924;-68
2023/05/09 03:17:54;;;;;;;;;;;15.30;96.80;;;;;;5027426;28;20333;-68
2023/05/09 03:20:19;;;;;;;;;;;15.20;96.70;;;;;;5027930;28;19909;-68
2023/05/09 03:22:47;;;;;;;;;;;15.20;96.70;;;;;;5045596;28;19921;-68
2023/05/09 03:25:12;;;;;;;;;;;15.20;96.70;;;;;;5028141;28;19913;-68
2023/05/09 03:27:38;;;;;;;;;;;15.20;96.70;;;;;;5046003;28;19916;-68
2023/05/09 03:30:04;;;;;;;;;;;15.20;96.70;;;;;;5045597;28;19913;-68
2023/05/09 03:32:30;;;;;;;;;;;15.20;96.70;;;;;;5045557;28;19948;-68
2023/05/09 03:34:56;;;;;;;;;;;15.20;96.70;;;;;;5045645;28;19916;-68
2023/05/09 03:37:21;;;;;;;;;;;15.20;96.70;;;;;;5045862;28;19909;-68
2023/05/09 03:39:47;;;;;;;;;;;15.20;96.70;;;;;;5027796;28;20298;-68
2023/05/09 03:42:12;;;;;;;;;;;15.20;96.70;;;;;;5045349;28;19913;-68
2023/05/09 03:44:38;;;;;;;;;;;15.20;96.70;;;;;;5045649;28;19909;-68
2023/05/09 03:47:03;;;;;;;;;;;15.20;96.70;;;;;;5027430;28;19940;-68
2023/05/09 03:49:29;;;;;;;;;;;15.20;96.70;;;;;;5027680;28;19909;-68
2023/05/09 03:51:54;;;;;;;;;;;15.10;96.60;;;;;;5027710;28;19947;-68
2023/05/09 03:54:20;;;;;;;;;;;15.20;96.70;;;;;;5045379;28;20334;-68
2023/05/09 03:56:45;;;;;;;;;;;15.20;96.50;;;;;;5045496;28;19913;-68
2023/05/09 03:59:11;;;;;;;;;;;15.10;96.50;;;;;;5045454;28;19919;-68
2023/05/09 04:01:38;;;;;;;;;;;15.20;96.60;;;;;;5045284;28;20013;-68
2023/05/09 04:04:04;;;;;;;;;;;15.10;96.50;;;;;;5045177;28;19932;-68
2023/05/09 04:06:29;;;;;;;;;;;15.20;96.70;;;;;;5045172;28;20362;-68
2023/05/09 04:08:55;;;;;;;;;;;15.10;96.60;;;;;;5045204;28;20456;-68
2023/05/09 04:11:21;;;;;;;;;;;15.10;96.50;;;;;;5045164;28;19909;-68
2023/05/09 04:13:46;;;;;;;;;;;15.10;96.50;;;;;;5044883;28;19999;-68
2023/05/09 04:16:12;;;;;;;;;;;15.10;96.50;;;;;;5047454;28;20691;-68
2023/05/09 04:18:40;;;;;;;;;;;15.10;96.40;;;;;;5030264;28;19999;-68
2023/05/09 04:21:07;;;;;;;;;;;15.10;96.50;;;;;;5048539;28;19917;-68
2023/05/09 04:23:32;;;;;;;;;;;15.10;96.40;;;;;;5048440;28;19944;-68
2023/05/09 04:25:58;;;;;;;;;;;15.10;96.50;;;;;;5048684;28;20003;-68
2023/05/09 04:28:23;;;;;;;;;;;15.10;96.40;;;;;;5048817;28;20550;-68
2023/05/09 04:30:49;;;;;;;;;;;15.10;96.30;;;;;;5048416;28;20392;-68
2023/05/09 04:33:14;;;;;;;;;;;15.10;96.30;;;;;;5048443;28;19913;-68
2023/05/09 04:35:40;;;;;;;;;;;15.10;96.30;;;;;;5048095;28;20016;-68
2023/05/09 04:38:05;;;;;;;;;;;15.10;96.40;;;;;;5030437;28;19974;-68
2023/05/09 04:40:32;;;;;;;;;;;15.10;96.40;;;;;;5048228;28;19908;-68
2023/05/09 04:42:57;;;;;;;;;;;15.10;96.40;;;;;;5047898;27;19921;-68
2023/05/09 04:45:23;;;;;;;;;;;15.10;96.40;;;;;;5048294;28;20376;-68
2023/05/09 04:47:48;;;;;;;;;;;15.10;96.40;;;;;;5048307;28;20277;-68
2023/05/09 04:50:15;;;;;;;;;;;15.10;96.40;;;;;;5047863;28;19913;-68
2023/05/09 04:52:40;;;;;;;;;;;15.10;96.40;;;;;;5048118;28;19917;-68
2023/05/09 04:55:06;;;;;;;;;;;15.10;96.40;;;;;;5047775;28;19924;-68
2023/05/09 04:57:32;;;;;;;;;;;15.10;96.40;;;;;;5048175;28;20550;-68
2023/05/09 04:59:57;;;;;;;;;;;15.00;96.30;;;;;;5047852;28;19917;-68
2023/05/09 05:02:24;;;;;;;;;;;15.00;96.30;;;;;;5047730;28;20284;-68
2023/05/09 05:04:50;;;;;;;;;;;15.10;96.30;;;;;;5047674;28;19916;-68
2023/05/09 05:07:15;;;;;;;;;;;15.10;96.30;;;;;;5047662;28;20695;-68
2023/05/09 05:09:41;;;;;;;;;;;15.00;96.30;;;;;;5047911;28;19921;-68
2023/05/09 05:12:07;;;;;;;;;;;15.10;96.40;;;;;;5029707;28;19947;-68
2023/05/09 05:14:33;;;;;;;;;;;15.00;96.30;;;;;;5045475;28;19923;-68
2023/05/09 05:16:58;;;;;;;;;;;15.00;96.20;;;;;;5041366;28;19909;-68
2023/05/09 05:19:24;;;;;;;;;;;15.10;96.40;;;;;;5047578;28;19909;-68
2023/05/09 05:21:50;;;;;;;;;;;15.00;96.30;;;;;;5047541;28;19928;-68
2023/05/09 05:24:17;;;;;;;;;;;15.10;96.20;;;;;;5046787;28;20216;-68
2023/05/09 05:26:42;;;;;;;;;;;15.00;96.20;;;;;;5046734;28;19989;-68
2023/05/09 05:29:08;;;;;;;;;;;15.10;96.20;;;;;;5047761;27;19913;-68
2023/05/09 05:31:33;;;;;;;;;;;15.00;96.10;;;;;;5047326;28;20349;-68
2023/05/09 05:33:59;;;;;;;;;;;15.10;96.20;;;;;;5029492;28;20435;-68
2023/05/09 05:36:24;;;;;;;;;;;15.00;96.10;;;;;;5047182;28;19913;-68
2023/05/09 05:38:50;;;;;;;;;;;15.00;96.20;;;;;;5047607;28;20494;-68
2023/05/09 05:41:16;;;;;;;;;;;15.10;96.30;;;;;;5047367;28;19932;-68
2023/05/09 05:43:41;;;;;;;;;;;15.10;96.20;;;;;;5029457;28;20247;-68
2023/05/09 05:46:07;;;;;;;;;;;15.00;96.20;;;;;;5047234;28;19917;-68
2023/05/09 05:48:32;;;;;;;;;;;15.10;96.30;;;;;;5047196;28;19977;-68
2023/05/09 05:50:57;;;;;;;;;;;15.10;96.40;;;;;;5047162;28;20295;-68
2023/05/09 05:53:23;;;;;;;;;;;15.10;96.60;;;;;;5046974;28;19923;-68
2023/05/09 05:55:49;;;;;;;;;;;15.10;96.30;;;;;;5047244;28;19921;-68
2023/05/09 05:58:14;;;;;;;;;;;15.10;96.20;;;;;;5047480;28;19913;-68
2023/05/09 06:00:40;;;;;;;;;;;15.20;96.10;;;;;;5047183;28;19923;-68
2023/05/09 06:03:06;;;;;;;;;;;15.20;96.00;;;;;;5046993;28;19962;-68
2023/05/09 06:05:31;;;;;;;;;;;15.20;96.00;;;;;;5046674;28;19916;-68
2023/05/09 06:07:57;;;;;;;;;;;15.20;96.20;;;;;;5029184;28;19917;-68
2023/05/09 06:10:22;;;;;;;;;;;15.30;96.20;;;;;;5047048;28;19913;-68
2023/05/09 06:12:48;;;;;;;;;;;15.30;96.20;;;;;;5046610;28;19913;-68
2023/05/09 06:15:13;;;;;;;;;;;15.40;96.10;;;;;;5028691;28;19948;-68
2023/05/09 06:17:39;;;;;;;;;;;15.40;96.10;;;;;;5046231;28;20323;-68
2023/05/09 06:20:05;;;;;;;;;;;15.40;96.20;;;;;;5028724;28;19912;-68
2023/05/09 06:22:30;;;;;;;;;;;15.40;96.30;;;;;;5046363;28;19921;-68
2023/05/09 06:24:56;;;;;;;;;;;15.40;96.00;;;;;;5046673;28;19909;-68
2023/05/09 06:27:21;;;;;;;;;;;15.50;96.00;;;;;;5046728;28;20601;-68
2023/05/09 06:29:47;;;;;;;;;;;15.50;95.90;;;;;;5046678;28;19920;-68
2023/05/09 06:32:12;;;;;;;;;;;15.50;96.10;;;;;;5046462;28;19923;-68
2023/05/09 06:34:38;;;;;;;;;;;15.60;95.80;;;;;;5046408;28;20607;-68
2023/05/09 06:37:03;;;;;;;;;;;15.60;95.70;;;;;;5028540;28;20624;-68
2023/05/09 06:39:29;;;;;;;;;;;15.60;95.60;;;;;;5046444;28;19958;-68
2023/05/09 06:41:54;;;;;;;;;;;15.70;95.60;;;;;;5045848;28;19918;-68
2023/05/09 06:44:20;;;;;;;;;;;15.70;95.50;;;;;;5046292;28;19913;-68
2023/05/09 06:46:45;;;;;;;;;;;15.80;95.50;;;;;;5044208;28;20471;-68
2023/05/09 06:49:12;;;;;;;;;;;15.80;95.40;;;;;;5046244;28;19916;-68
2023/05/09 06:51:38;;;;;;;;;;;15.90;95.40;;;;;;5045949;28;19917;-68
2023/05/09 06:54:03;;;;;;;;;;;15.90;95.40;;;;;;5046234;28;19957;-68
2023/05/09 06:56:30;;;;;;;;;;;15.90;95.40;;;;;;5046606;28;19909;-68
2023/05/09 06:58:55;;;;;;;;;;;15.90;95.50;;;;;;5046340;28;19913;-68
2023/05/09 07:01:21;;;;;;;;;;;15.90;95.70;;;;;;5046291;28;19961;-68
2023/05/09 07:03:46;;;;;;;;;;;16.00;95.30;;;;;;5045668;28;19909;-68
2023/05/09 07:06:12;;;;;;;;;;;16.00;95.30;;;;;;5028086;28;19920;-68
2023/05/09 07:08:38;;;;;;;;;;;16.10;95.40;;;;;;5045943;28;20045;-68
2023/05/09 07:11:03;;;;;;;;;;;16.10;95.40;;;;;;5045863;28;19908;-68
2023/05/09 07:13:29;;;;;;;;;;;16.20;95.30;;;;;;5045582;28;19961;-68
2023/05/09 07:15:54;;;;;;;;;;;16.20;95.50;;;;;;5037261;28;19937;-68
2023/05/09 07:18:20;;;;;;;;;;;16.20;95.30;;;;;;5045681;28;20304;-68
2023/05/09 07:20:45;;;;;;;;;;;16.30;95.20;;;;;;5045538;28;19913;-68
2023/05/09 07:23:11;;;;;;;;;;;16.30;95.20;;;;;;5045657;28;19916;-68
2023/05/09 07:25:36;;;;;;;;;;;16.30;95.20;;;;;;5045827;28;20000;-68
2023/05/09 07:28:02;;;;;;;;;;;16.40;95.20;;;;;;5028060;28;20405;-68
2023/05/09 07:30:27;;;;;;;;;;;16.40;95.20;;;;;;5045600;28;20360;-68
2023/05/09 07:32:53;;;;;;;;;;;16.40;95.10;;;;;;5027634;28;19909;-68
2023/05/09 07:35:18;;;;;;;;;;;16.50;95.10;;;;;;5045478;28;19940;-68
2023/05/09 07:37:44;;;;;;;;;;;16.50;95.00;;;;;;5045851;28;19909;-68
2023/05/09 07:40:10;;;;;;;;;;;16.50;95.20;;;;;;5045344;28;19926;-68
2023/05/09 07:42:35;;;;;;;;;;;16.50;95.20;;;;;;5045187;28;20362;-68
2023/05/09 07:45:03;;;;;;;;;;;16.50;95.20;;;;;;5045421;28;19916;-68
2023/05/09 07:47:28;;;;;;;;;;;16.60;95.20;;;;;;5045388;28;19909;-68
2023/05/09 07:49:54;;;;;;;;;;;16.60;95.20;;;;;;5026941;28;19909;-68
2023/05/09 07:52:19;;;;;;;;;;;16.60;95.20;;;;;;5045411;28;19934;-68
2023/05/09 07:54:45;;;;;;;;;;;16.60;95.20;;;;;;5045423;28;20409;-68
2023/05/09 07:57:11;;;;;;;;;;;16.60;95.20;;;;;;5045482;28;19909;-68
2023/05/09 07:59:36;;;;;;;;;;;16.70;95.30;;;;;;5027669;28;19934;-68
2023/05/09 08:02:02;;;;;;;;;;;16.70;95.30;;;;;;5045056;28;19909;-69
2023/05/09 08:04:27;;;;;;;;;;;16.80;95.20;;;;;;5045518;28;19920;-68
2023/05/09 08:06:53;;;;;;;;;;;16.80;95.10;;;;;;5045389;28;19913;-68
2023/05/09 08:09:18;;;;;;;;;;;16.80;95.00;;;;;;5045413;28;19913;-68
2023/05/09 08:11:44;;;;;;;;;;;16.80;95.20;;;;;;5044823;28;19919;-68
2023/05/09 08:14:09;;;;;;;;;;;16.90;95.10;;;;;;5044546;28;20730;-68
2023/05/09 08:16:35;;;;;;;;;;;16.90;95.10;;;;;;5036267;28;19912;-68
2023/05/09 08:19:00;;;;;;;;;;;16.90;95.20;;;;;;5043675;28;19915;-68
2023/05/09 08:21:26;;;;;;;;;;;16.90;95.10;;;;;;5043929;28;20003;-68
2023/05/09 08:23:52;;;;;;;;;;;16.90;95.00;;;;;;5044917;28;19954;-68
2023/05/09 08:26:17;;;;;;;;;;;16.90;95.30;;;;;;5027252;28;20690;-68
2023/05/09 08:28:43;;;;;;;;;;;16.90;95.10;;;;;;5045126;28;20349;-68
2023/05/09 08:31:08;;;;;;;;;;;17.00;95.10;;;;;;5044835;28;20296;-68
2023/05/09 08:33:34;;;;;;;;;;;17.10;95.00;;;;;;5026810;28;20281;-68
2023/05/09 08:36:00;;;;;;;;;;;17.20;95.00;;;;;;5044675;28;19939;-69
2023/05/09 08:38:27;;;;;;;;;;;17.20;94.90;;;;;;5044687;28;19909;-69
2023/05/09 08:40:52;;;;;;;;;;;17.30;95.00;;;;;;5026803;28;19909;-68
2023/05/09 08:43:19;;;;;;;;;;;17.30;94.80;;;;;;5044176;28;19913;-68
2023/05/09 08:45:50;;;;;;;;;;;17.30;94.70;;;;;;5044694;28;19913;-69
2023/05/09 08:48:16;;;;;;;;;;;17.40;94.80;;;;;;5037258;28;20436;-69
2023/05/09 08:50:42;;;;;;;;;;;17.40;94.70;;;;;;5044591;28;20018;-68
2023/05/09 08:53:08;;;;;;;;;;;17.50;94.70;;;;;;5026502;28;19917;-68
2023/05/09 08:55:34;;;;;;;;;;;17.50;94.60;;;;;;5044610;28;19913;-69
2023/05/09 08:57:59;;;;;;;;;;;17.50;94.60;;;;;;5044822;28;19909;-68
2023/05/09 09:00:25;;;;;;;;;;;17.60;94.60;;;;;;5044335;28;19913;-68
2023/05/09 09:02:51;;;;;;;;;;;17.60;94.60;;;;;;5046629;28;19938;-69
2023/05/09 09:05:17;;;;;;;;;;;17.60;94.50;;;;;;5047805;28;19908;-69
2023/05/09 09:07:43;;;;;;;;;;;17.70;94.40;;;;;;5047884;28;19958;-69
2023/05/09 09:10:09;;;;;;;;;;;17.70;94.40;;;;;;5047736;28;20028;-69
2023/05/09 09:12:36;;;;;;;;;;;17.70;94.50;;;;;;5047596;28;20007;-68
2023/05/09 09:15:04;;;;;;;;;;;17.80;94.40;;;;;;5041329;28;19920;-69
2023/05/09 09:17:32;;;;;;;;;;;17.80;94.40;;;;;;5045501;28;20386;-68
2023/05/09 09:19:59;;;;;;;;;;;17.80;94.40;;;;;;5047579;28;19920;-69
2023/05/09 09:22:27;;;;;;;;;;;17.80;94.30;;;;;;5047382;28;19917;-68
2023/05/09 09:24:53;;;;;;;;;;;17.90;94.30;;;;;;5047442;28;20394;-68
2023/05/09 09:27:18;;;;;;;;;;;17.90;94.40;;;;;;5047713;28;19913;-68
2023/05/09 09:29:44;;;;;;;;;;;18.00;94.20;;;;;;5104278;27;20360;-68
2023/05/09 09:32:09;;;;;;;;;;;18.10;94.20;;;;;;5152189;27;19919;-68
2023/05/09 09:34:34;;;;;;;;;;;18.20;94.00;;;;;;5152415;27;19915;-68
2023/05/09 09:37:00;;;;;;;;;;;18.20;93.90;;;;;;5152365;27;20472;-68
2023/05/09 09:39:26;;;;;;;;;;;18.30;93.80;;;;;;5152356;27;20411;-68
2023/05/09 09:41:52;;;;;;;;;;;18.30;93.70;;;;;;5081609;27;19929;-69
2023/05/09 09:44:18;;;;;;;;;;;18.40;93.70;;;;;;5047305;28;19916;-68
2023/05/09 09:46:45;;;;;;;;;;;18.50;93.80;;;;;;5047091;28;19912;-68
2023/05/09 09:49:15;;;;;;;;;;;18.50;93.70;;;;;;5047158;28;20255;-68
2023/05/09 09:51:40;;;;;;;;;;;18.60;93.70;;;;;;5046979;28;19917;-68
2023/05/09 09:54:10;;;;;;;;;;;18.60;93.60;;;;;;5047077;28;19919;-68
2023/05/09 09:56:42;;;;;;;;;;;18.70;93.60;;;;;;5047096;28;19917;-69
2023/05/09 09:59:20;;;;;;;;;;;18.70;93.70;;;;;;5047383;28;19952;-68
2023/05/09 10:01:58;;;;;;;;;;;18.70;93.50;;;;;;5047132;28;19909;-69
2023/05/09 10:04:24;;;;;;;;;;;18.80;93.50;;;;;;5047407;28;19916;-69
2023/05/09 10:06:54;;;;;;;;;;;18.80;93.50;;;;;;5047277;28;20494;-69
2023/05/09 10:09:21;;;;;;;;;;;18.90;93.40;;;;;;5047088;28;19935;-69
2023/05/09 10:11:47;;;;;;;;;;;19.00;93.20;;;;;;5046240;28;19909;-69
2023/05/09 10:14:13;;;;;;;;;;;19.10;93.10;;;;;;5045526;28;19913;-69
2023/05/09 10:16:38;;;;;;;;;;;19.10;93.10;;;;;;5045266;28;19935;-69
2023/05/09 10:19:04;;;;;;;;;;;19.20;93.00;;;;;;5045573;28;19913;-68
2023/05/09 10:21:31;;;;;;;;;;;19.30;92.90;;;;;;5027699;28;19948;-69
2023/05/09 10:23:58;;;;;;;;;;;19.30;92.80;;;;;;5045533;28;19909;-68
2023/05/09 10:26:27;;;;;;;;;;;19.30;92.80;;;;;;5045731;28;19913;-69
2023/05/09 10:28:54;;;;;;;;;;;19.40;92.80;;;;;;5045970;28;19912;-69
2023/05/09 10:31:26;;;;;;;;;;;19.50;92.80;;;;;;5027761;28;19981;-69
2023/05/09 10:33:52;;;;;;;;;;;19.50;92.70;;;;;;5045344;28;19981;-69
2023/05/09 10:36:22;;;;;;;;;;;19.60;92.60;;;;;;5045670;28;20484;-69
2023/05/09 10:38:48;;;;;;;;;;;19.70;92.50;;;;;;5045459;28;19919;-69
2023/05/09 10:41:18;;;;;;;;;;;19.70;92.50;;;;;;5028104;28;19924;-69
2023/05/09 10:43:44;;;;;;;;;;;19.80;92.40;;;;;;5042745;28;19912;-69
2023/05/09 10:46:11;;;;;;;;;;;19.90;92.20;;;;;;5045419;28;20381;-69
2023/05/09 10:48:36;;;;;;;;;;;20.00;92.00;;;;;;5045486;28;19992;-69
2023/05/09 10:51:02;;;;;;;;;;;20.00;91.90;;;;;;5027447;28;20413;-69
2023/05/09 10:53:47;;;;;;;;;;;20.10;91.90;;;;;;5045383;28;19916;-69
2023/05/09 10:56:23;;;;;;;;;;;20.10;91.90;;;;;;5045373;28;20000;-69
2023/05/09 10:58:48;;;;;;;;;;;20.20;91.90;;;;;;5045700;28;20369;-69
2023/05/09 11:01:26;;;;;;;;;;;20.20;91.80;;;;;;5045395;28;19955;-69
2023/05/09 11:03:56;;;;;;;;;;;20.30;91.70;;;;;;5042959;28;19958;-69
2023/05/09 11:06:44;;;;;;;;;;;20.40;91.70;;;;;;5041999;28;19924;-69
2023/05/09 11:09:28;;;;;;;;;;;20.40;91.80;;;;;;5045259;28;19950;-68
2023/05/09 11:11:54;;;;;;;;;;;20.50;91.60;;;;;;5044814;28;19912;-69
2023/05/09 11:14:34;;;;;;;;;;;20.50;91.40;;;;;;5026498;28;19989;-69
2023/05/09 11:17:04;;;;;;;;;;;20.60;91.50;;;;;;5038203;28;19965;-69
2023/05/09 11:19:36;;;;;;;;;;;20.70;91.50;;;;;;5044260;28;19913;-69
2023/05/09 11:22:10;;;;;;;;;;;20.70;91.40;;;;;;5025413;28;19921;-68
2023/05/09 11:24:36;;;;;;;;;;;20.70;91.40;;;;;;5042812;28;19913;-69
2023/05/09 11:27:04;;;;;;;;;;;20.80;91.40;;;;;;5045249;28;20568;-69
2023/05/09 11:29:41;;;;;;;;;;;20.80;91.50;;;;;;5045739;28;19996;-69
2023/05/09 11:32:07;;;;;;;;;;;20.80;91.40;;;;;;5045173;28;20389;-69
2023/05/09 11:34:33;;;;;;;;;;;20.80;91.30;;;;;;5027056;28;19963;-69
2023/05/09 11:37:16;;;;;;;;;;;20.80;91.40;;;;;;5045479;28;19965;-69
2023/05/09 11:39:56;;;;;;;;;;;20.90;91.60;;;;;;5045625;28;20037;-69
2023/05/09 11:42:22;;;;;;;;;;;20.90;91.50;;;;;;5045305;28;19920;-69
2023/05/09 11:44:48;;;;;;;;;;;20.90;91.30;;;;;;5045584;28;19913;-69
2023/05/09 11:47:15;;;;;;;;;;;21.00;91.20;;;;;;5045429;28;19964;-69
2023/05/09 11:49:43;;;;;;;;;;;21.10;91.30;;;;;;5026785;28;19920;-69
2023/05/09 11:52:09;;;;;;;;;;;21.20;91.10;;;;;;5036568;28;20370;-69
2023/05/09 11:54:37;;;;;;;;;;;21.20;91.10;;;;;;5042875;28;19924;-69
2023/05/09 11:57:02;;;;;;;;;;;21.20;91.10;;;;;;5044650;28;19984;-69
2023/05/09 11:59:28;;;;;;;;;;;21.20;91.20;;;;;;5044639;28;19917;-69
2023/05/09 12:01:53;;;;;;;;;;;21.20;91.10;;;;;;5044239;28;19924;-69
2023/05/09 12:04:19;;;;;;;;;;;21.10;91.30;;;;;;5044733;28;19909;-69
2023/05/09 12:06:50;;;;;;;;;;;21.10;91.30;;;;;;5044415;28;20429;-69
2023/05/09 12:09:18;;;;;;;;;;;21.10;91.40;;;;;;5044587;28;19916;-69
2023/05/09 12:11:51;;;;;;;;;;;21.10;91.30;;;;;;5027202;28;19966;-69
2023/05/09 12:14:29;;;;;;;;;;;21.00;91.40;;;;;;5044276;28;20418;-69
2023/05/09 12:16:55;;;;;;;;;;;21.00;91.50;;;;;;5044233;28;19935;-69
2023/05/09 12:19:22;;;;;;;;;;;21.00;91.50;;;;;;5044194;28;19917;-69
2023/05/09 12:21:47;;;;;;;;;;;21.00;91.60;;;;;;5044555;28;19917;-69
2023/05/09 12:24:13;;;;;;;;;;;21.00;91.60;;;;;;5027297;28;19920;-69
2023/05/09 12:26:38;;;;;;;;;;;21.00;91.70;;;;;;5044822;28;19913;-69
2023/05/09 12:29:04;;;;;;;;;;;21.10;91.50;;;;;;5045018;28;19909;-69
2023/05/09 12:31:30;;;;;;;;;;;21.10;91.50;;;;;;5044830;28;19932;-69
2023/05/09 12:33:56;;;;;;;;;;;21.10;91.40;;;;;;5044679;28;19944;-69
2023/05/09 12:36:23;;;;;;;;;;;21.20;91.50;;;;;;5046358;28;19952;-69
2023/05/09 12:38:53;;;;;;;;;;;21.20;91.30;;;;;;5048348;28;19921;-69
2023/05/09 12:41:19;;;;;;;;;;;21.30;91.30;;;;;;5048519;28;19917;-69
2023/05/09 12:43:46;;;;;;;;;;;21.30;91.20;;;;;;5029936;28;19913;-69
2023/05/09 12:46:16;;;;;;;;;;;21.30;91.30;;;;;;5046823;28;20500;-69
2023/05/09 12:48:42;;;;;;;;;;;21.30;91.40;;;;;;5058815;28;19936;-69
2023/05/09 12:51:08;;;;;;;;;;;21.30;91.10;;;;;;5047116;28;19969;-69
2023/05/09 12:53:40;;;;;;;;;;;21.30;91.30;;;;;;5047242;28;20350;-69
2023/05/09 12:56:11;;;;;;;;;;;21.30;91.20;;;;;;5047213;28;19917;-69
2023/05/09 12:58:37;;;;;;;;;;;21.40;91.10;;;;;;5047445;28;20095;-68
2023/05/09 13:01:03;;;;;;;;;;;21.40;91.20;;;;;;5047383;28;20000;-69
2023/05/09 13:03:36;;;;;;;;;;;21.40;91.00;;;;;;5047148;28;19909;-69
2023/05/09 13:06:03;;;;;;;;;;;21.50;91.10;;;;;;5047771;28;19948;-69
2023/05/09 13:08:29;;;;;;;;;;;21.50;91.20;;;;;;5047984;28;19954;-69
2023/05/09 13:10:56;;;;;;;;;;;21.50;91.20;;;;;;5047893;28;20326;-69
2023/05/09 13:13:25;;;;;;;;;;;21.50;91.10;;;;;;5047499;28;19909;-69
2023/05/09 13:15:50;;;;;;;;;;;21.50;91.10;;;;;;5047628;28;20007;-69
2023/05/09 13:18:16;;;;;;;;;;;21.50;90.90;;;;;;5047792;28;20330;-69
2023/05/09 13:20:42;;;;;;;;;;;21.50;91.10;;;;;;5047412;28;20462;-69
2023/05/09 13:23:07;;;;;;;;;;;21.50;91.00;;;;;;5047484;28;19921;-69
2023/05/09 13:25:33;;;;;;;;;;;21.60;91.20;;;;;;5047583;28;19912;-69
2023/05/09 13:27:58;;;;;;;;;;;21.50;91.20;;;;;;5047017;28;19919;-69
2023/05/09 13:30:24;;;;;;;;;;;21.50;91.10;;;;;;5047399;28;19941;-69
2023/05/09 13:32:50;;;;;;;;;;;21.50;91.20;;;;;;5047251;28;20534;-69
2023/05/09 13:35:16;;;;;;;;;;;21.50;91.30;;;;;;5047105;28;20270;-69
2023/05/09 13:37:42;;;;;;;;;;;21.50;91.40;;;;;;5047480;28;19919;-69
2023/05/09 13:40:08;;;;;;;;;;;21.50;91.50;;;;;;5047412;28;20650;-69
2023/05/09 13:42:34;;;;;;;;;;;21.50;91.30;;;;;;5046982;28;19979;-69
2023/05/09 13:44:59;;;;;;;;;;;21.50;91.50;;;;;;5047301;28;20606;-69
2023/05/09 13:47:25;;;;;;;;;;;21.40;91.40;;;;;;5044188;28;19917;-69
2023/05/09 13:49:51;;;;;;;;;;;21.40;91.30;;;;;;5047157;28;19919;-69
2023/05/09 13:52:17;;;;;;;;;;;21.40;91.40;;;;;;5029070;28;20311;-69
2023/05/09 13:54:42;;;;;;;;;;;21.40;91.50;;;;;;5047112;28;19916;-69
2023/05/09 13:57:08;;;;;;;;;;;21.40;91.50;;;;;;5029634;28;19951;-69
2023/05/09 13:59:34;;;;;;;;;;;21.40;91.20;;;;;;5047169;28;19913;-69
2023/05/09 14:01:59;;;;;;;;;;;21.40;90.90;;;;;;5046940;28;20409;-69
2023/05/09 14:04:25;;;;;;;;;;;21.30;91.20;;;;;;5047341;28;19919;-69
2023/05/09 14:06:52;;;;;;;;;;;21.40;90.70;;;;;;5047025;28;19913;-69
2023/05/09 14:09:18;;;;;;;;;;;21.30;91.50;;;;;;5047106;28;19920;-69
2023/05/09 14:11:43;;;;;;;;;;;21.30;91.60;;;;;;5029019;28;20028;-68
2023/05/09 14:14:09;;;;;;;;;;;21.30;91.60;;;;;;5046831;28;20010;-69